Time;durP1;ratioP1;P1;durP2;ratioP2;P2;SDS_P1;SDS_P2;PMS_P1;PMS_P2;Temp;Humidity;BMP_temperature;BMP_pressure;BME280_temperature;BME280_humidity;BME280_pressure;Samples;Min_cycle;Max_cycle;Signal;HPM_P1;HPM_P2
2022/03/10 00:01:33;;;;;;;10.20;6.83;;;;;;;;;;5015941;28;20955;-77
2022/03/10 00:03:59;;;;;;;11.30;7.80;;;;;;;;;;5015862;28;20450;-77
2022/03/10 00:06:25;;;;;;;9.07;6.20;;;;;;;;;;5015972;28;20399;-77
2022/03/10 00:08:51;;;;;;;15.30;7.37;;;;;;;;;;5016045;28;20435;-77
2022/03/10 00:11:17;;;;;;;10.87;7.03;;;;;;;;;;5016088;28;20423;-77
2022/03/10 00:13:44;;;;;;;9.17;5.80;;;;;;;;;;5014580;28;20408;-77
2022/03/10 00:16:10;;;;;;;9.00;6.20;;;;;;;;;;5016649;28;20403;-77
2022/03/10 00:18:36;;;;;;;11.30;7.50;;;;;;;;;;5015256;28;20457;-76
2022/03/10 00:21:02;;;;;;;10.17;7.27;;;;;;;;;;5017023;28;20459;-77
2022/03/10 00:23:28;;;;;;;14.47;6.40;;;;;;;;;;5016113;28;20392;-77
2022/03/10 00:25:55;;;;;;;9.67;6.27;;;;;;;;;;5014504;28;20449;-77
2022/03/10 00:28:21;;;;;;;8.97;6.40;;;;;;;;;;5015829;28;20491;-77
2022/03/10 00:30:47;;;;;;;11.00;7.03;;;;;;;;;;5015505;28;20464;-77
2022/03/10 00:33:14;;;;;;;10.43;6.67;;;;;;;;;;5015208;28;20407;-77
2022/03/10 00:35:40;;;;;;;10.17;6.67;;;;;;;;;;5015378;28;20417;-77
2022/03/10 00:38:06;;;;;;;10.10;5.90;;;;;;;;;;5015016;28;20479;-77
2022/03/10 00:40:32;;;;;;;14.83;7.77;;;;;;;;;;5015018;28;20439;-77
2022/03/10 00:42:59;;;;;;;10.40;5.97;;;;;;;;;;5014061;28;20403;-77
2022/03/10 00:45:28;;;;;;;12.13;6.80;;;;;;;;;;5014685;28;20458;-77
2022/03/10 00:47:54;;;;;;;11.73;5.70;;;;;;;;;;5015204;28;20417;-77
2022/03/10 00:50:23;;;;;;;9.17;6.60;;;;;;;;;;5015048;28;20904;-77
2022/03/10 00:52:49;;;;;;;9.30;5.90;;;;;;;;;;5015774;28;20768;-77
2022/03/10 00:55:19;;;;;;;13.50;7.00;;;;;;;;;;5015554;28;20399;-77
2022/03/10 00:57:45;;;;;;;9.00;6.00;;;;;;;;;;5014822;28;20451;-77
2022/03/10 01:00:11;;;;;;;7.57;5.93;;;;;;;;;;5014583;28;20419;-77
2022/03/10 01:02:37;;;;;;;10.10;5.80;;;;;;;;;;5013455;28;20928;-78
2022/03/10 01:05:04;;;;;;;8.93;5.77;;;;;;;;;;5014604;28;20419;-77
2022/03/10 01:07:30;;;;;;;8.67;6.00;;;;;;;;;;5014279;28;20410;-77
2022/03/10 01:09:56;;;;;;;12.03;6.47;;;;;;;;;;5014328;28;20415;-77
2022/03/10 01:12:22;;;;;;;10.47;6.53;;;;;;;;;;5014788;28;20566;-77
2022/03/10 01:14:49;;;;;;;10.47;6.00;;;;;;;;;;5014856;28;20403;-77
2022/03/10 01:17:15;;;;;;;9.60;6.07;;;;;;;;;;5012898;28;20419;-77
2022/03/10 01:19:41;;;;;;;11.43;6.00;;;;;;;;;;5014670;28;20458;-77
2022/03/10 01:22:07;;;;;;;8.47;6.13;;;;;;;;;;5014193;28;20399;-76
2022/03/10 01:24:34;;;;;;;8.00;5.93;;;;;;;;;;5013869;28;20442;-76
2022/03/10 01:27:00;;;;;;;8.90;6.17;;;;;;;;;;5013935;28;20425;-76
2022/03/10 01:29:26;;;;;;;11.77;7.90;;;;;;;;;;5013867;28;20412;-76
2022/03/10 01:31:52;;;;;;;8.40;5.30;;;;;;;;;;5013775;28;20522;-77
2022/03/10 01:34:18;;;;;;;9.80;6.60;;;;;;;;;;5014286;28;20494;-75
2022/03/10 01:36:44;;;;;;;13.30;6.40;;;;;;;;;;5014479;28;20454;-79
2022/03/10 01:39:10;;;;;;;9.07;5.97;;;;;;;;;;5013944;28;20967;-77
2022/03/10 01:41:36;;;;;;;9.13;5.60;;;;;;;;;;5013836;28;20450;-78
2022/03/10 01:44:04;;;;;;;9.93;7.73;;;;;;;;;;5014181;28;20411;-77
2022/03/10 01:46:30;;;;;;;8.80;5.63;;;;;;;;;;5014339;28;20454;-77
2022/03/10 01:48:57;;;;;;;8.70;5.93;;;;;;;;;;5013788;28;20449;-77
2022/03/10 01:51:24;;;;;;;9.87;6.40;;;;;;;;;;5012363;28;20454;-77
2022/03/10 01:53:50;;;;;;;10.63;6.20;;;;;;;;;;5013418;28;20446;-77
2022/03/10 01:56:21;;;;;;;10.60;6.33;;;;;;;;;;5013041;28;20400;-77
2022/03/10 01:58:47;;;;;;;13.53;7.27;;;;;;;;;;5012197;28;21004;-77
2022/03/10 02:01:14;;;;;;;10.37;5.70;;;;;;;;;;5013565;28;20426;-77
2022/03/10 02:03:41;;;;;;;10.43;6.90;;;;;;;;;;5013751;28;20398;-77
2022/03/10 02:06:07;;;;;;;9.73;5.67;;;;;;;;;;5013798;28;20408;-77
2022/03/10 02:11:19;;;;;;;9.23;7.03;;;;;;;;;;5013654;28;20527;-77
2022/03/10 02:13:45;;;;;;;12.37;7.20;;;;;;;;;;5013195;28;20395;-78
2022/03/10 02:18:57;;;;;;;12.73;5.90;;;;;;;;;;5013379;28;20746;-76
2022/03/10 02:21:24;;;;;;;9.33;6.27;;;;;;;;;;5013956;28;20935;-77
2022/03/10 02:23:50;;;;;;;10.97;7.10;;;;;;;;;;5013100;28;20748;-77
2022/03/10 02:26:16;;;;;;;7.47;5.70;;;;;;;;;;5013091;28;20435;-77
2022/03/10 02:28:43;;;;;;;10.17;6.20;;;;;;;;;;5013718;28;20482;-77
2022/03/10 02:31:09;;;;;;;8.17;5.70;;;;;;;;;;5013535;28;20434;-77
2022/03/10 02:33:35;;;;;;;15.40;5.60;;;;;;;;;;5013321;28;20911;-77
2022/03/10 02:36:02;;;;;;;9.33;5.93;;;;;;;;;;5013171;28;20414;-77
2022/03/10 02:38:28;;;;;;;12.00;5.73;;;;;;;;;;5013937;28;20993;-76
2022/03/10 02:40:54;;;;;;;8.73;6.27;;;;;;;;;;5013291;28;20455;-76
2022/03/10 02:43:20;;;;;;;12.67;6.30;;;;;;;;;;5013220;28;20406;-76
2022/03/10 02:45:47;;;;;;;10.93;5.30;;;;;;;;;;5004058;28;21097;-76
2022/03/10 02:48:14;;;;;;;11.53;5.43;;;;;;;;;;4999018;28;20416;-76
2022/03/10 02:50:40;;;;;;;9.53;5.23;;;;;;;;;;4993367;28;20507;-76
2022/03/10 02:53:06;;;;;;;10.87;6.77;;;;;;;;;;4993180;28;20408;-76
2022/03/10 02:55:32;;;;;;;10.50;5.50;;;;;;;;;;4992128;28;20920;-76
2022/03/10 02:57:58;;;;;;;6.37;5.03;;;;;;;;;;4993185;28;20448;-76
2022/03/10 03:00:24;;;;;;;10.00;5.60;;;;;;;;;;4993242;28;20477;-76
2022/03/10 03:02:50;;;;;;;12.57;5.77;;;;;;;;;;4993165;28;20439;-77
2022/03/10 03:05:16;;;;;;;11.27;6.50;;;;;;;;;;4993491;28;20447;-77
2022/03/10 03:07:44;;;;;;;9.10;6.20;;;;;;;;;;4994701;28;20412;-75
2022/03/10 03:10:10;;;;;;;9.93;6.33;;;;;;;;;;4997154;28;20424;-76
2022/03/10 03:12:44;;;;;;;9.10;5.83;;;;;;;;;;4996959;28;20404;-75
2022/03/10 03:15:10;;;;;;;11.97;5.87;;;;;;;;;;4997052;28;20384;-76
2022/03/10 03:17:36;;;;;;;10.60;6.60;;;;;;;;;;4996726;28;20397;-76
2022/03/10 03:20:04;;;;;;;14.40;6.43;;;;;;;;;;4995385;28;20891;-76
2022/03/10 03:22:30;;;;;;;9.43;6.13;;;;;;;;;;4997004;28;20415;-77
2022/03/10 03:24:57;;;;;;;11.40;7.20;;;;;;;;;;4996640;28;20404;-76
2022/03/10 03:27:23;;;;;;;9.93;6.70;;;;;;;;;;4996740;28;20503;-76
2022/03/10 03:29:49;;;;;;;16.60;6.50;;;;;;;;;;4996588;28;20404;-75
2022/03/10 03:32:15;;;;;;;9.50;6.17;;;;;;;;;;4996756;28;20443;-77
2022/03/10 03:34:41;;;;;;;8.77;5.70;;;;;;;;;;4996589;28;20405;-77
2022/03/10 03:37:07;;;;;;;15.27;6.90;;;;;;;;;;4996756;28;20408;-77
2022/03/10 03:39:34;;;;;;;9.93;6.30;;;;;;;;;;4996422;28;20506;-77
2022/03/10 03:42:00;;;;;;;8.70;6.30;;;;;;;;;;4996343;28;20438;-77
2022/03/10 03:44:26;;;;;;;7.87;6.20;;;;;;;;;;4997043;28;20405;-77
2022/03/10 03:46:52;;;;;;;10.17;5.90;;;;;;;;;;4996822;28;20408;-77
2022/03/10 03:49:18;;;;;;;10.07;5.83;;;;;;;;;;4997528;28;20408;-77
2022/03/10 03:51:44;;;;;;;13.93;7.77;;;;;;;;;;4998329;28;20511;-77
2022/03/10 03:54:10;;;;;;;8.37;6.27;;;;;;;;;;4999146;28;20415;-77
2022/03/10 03:56:37;;;;;;;14.47;6.30;;;;;;;;;;4996553;28;20404;-77
2022/03/10 03:59:03;;;;;;;8.90;5.70;;;;;;;;;;4996412;28;20464;-77
2022/03/10 04:01:29;;;;;;;7.03;5.90;;;;;;;;;;4996018;28;20433;-77
2022/03/10 04:03:55;;;;;;;10.77;6.63;;;;;;;;;;4996415;28;20428;-77
2022/03/10 04:06:22;;;;;;;7.40;5.70;;;;;;;;;;4996398;28;20408;-77
2022/03/10 04:08:48;;;;;;;13.50;6.80;;;;;;;;;;4996102;28;20412;-76
2022/03/10 04:11:14;;;;;;;12.13;6.30;;;;;;;;;;4995770;28;20423;-77
2022/03/10 04:13:41;;;;;;;10.70;6.70;;;;;;;;;;4995803;28;20447;-77
2022/03/10 04:16:07;;;;;;;9.77;5.83;;;;;;;;;;4999191;28;20428;-77
2022/03/10 04:18:33;;;;;;;9.10;5.90;;;;;;;;;;5014707;28;20454;-77
2022/03/10 04:20:59;;;;;;;8.80;5.90;;;;;;;;;;5015468;28;20431;-77
2022/03/10 04:23:29;;;;;;;10.90;6.40;;;;;;;;;;5011396;28;20435;-77
2022/03/10 04:25:55;;;;;;;12.70;6.50;;;;;;;;;;5015404;28;20407;-77
2022/03/10 04:28:22;;;;;;;10.73;6.13;;;;;;;;;;5015499;28;20415;-77
2022/03/10 04:30:48;;;;;;;11.90;6.50;;;;;;;;;;5016764;28;20462;-77
2022/03/10 04:33:15;;;;;;;12.57;7.27;;;;;;;;;;5015318;28;20430;-77
2022/03/10 04:35:41;;;;;;;14.93;6.30;;;;;;;;;;5014979;28;20399;-77
2022/03/10 04:38:07;;;;;;;9.30;6.40;;;;;;;;;;5014860;28;20539;-77
2022/03/10 04:40:34;;;;;;;10.83;5.90;;;;;;;;;;5015149;28;20798;-77
2022/03/10 04:43:00;;;;;;;12.10;7.50;;;;;;;;;;5013525;28;20412;-77
2022/03/10 04:45:26;;;;;;;7.40;5.40;;;;;;;;;;5013630;28;20408;-77
2022/03/10 04:47:52;;;;;;;8.10;6.33;;;;;;;;;;5014877;28;20427;-78
2022/03/10 04:50:19;;;;;;;12.20;6.70;;;;;;;;;;5014713;28;20431;-77
2022/03/10 04:52:45;;;;;;;14.13;6.33;;;;;;;;;;5015022;28;20403;-76
2022/03/10 04:55:12;;;;;;;11.53;6.90;;;;;;;;;;5014725;28;20765;-76
2022/03/10 04:57:38;;;;;;;10.00;6.27;;;;;;;;;;5014575;28;20413;-76
2022/03/10 05:00:08;;;;;;;8.10;6.23;;;;;;;;;;5013070;28;20431;-76
2022/03/10 05:02:35;;;;;;;8.77;6.87;;;;;;;;;;5010661;28;20515;-76
2022/03/10 05:05:01;;;;;;;9.50;5.50;;;;;;;;;;5000766;28;20910;-76
2022/03/10 05:07:27;;;;;;;7.60;5.93;;;;;;;;;;5014481;28;20478;-77
2022/03/10 05:09:53;;;;;;;9.17;6.00;;;;;;;;;;5005833;28;20453;-76
2022/03/10 05:12:20;;;;;;;13.70;7.00;;;;;;;;;;5014611;28;20407;-76
2022/03/10 05:14:46;;;;;;;10.90;6.03;;;;;;;;;;5014465;28;20410;-77
2022/03/10 05:17:12;;;;;;;9.00;5.90;;;;;;;;;;5013111;28;20546;-76
2022/03/10 05:19:38;;;;;;;9.07;6.30;;;;;;;;;;5014065;28;20529;-76
2022/03/10 05:22:04;;;;;;;8.10;6.60;;;;;;;;;;5012860;28;20416;-75
2022/03/10 05:24:30;;;;;;;9.27;6.27;;;;;;;;;;5014000;28;20404;-75
2022/03/10 05:27:00;;;;;;;14.20;6.00;;;;;;;;;;5014247;28;20400;-76
2022/03/10 05:29:26;;;;;;;6.80;4.97;;;;;;;;;;5012842;28;20411;-76
2022/03/10 05:31:52;;;;;;;10.40;6.30;;;;;;;;;;5013943;28;20427;-76
2022/03/10 05:34:18;;;;;;;10.13;5.57;;;;;;;;;;5014109;28;20483;-77
2022/03/10 05:36:44;;;;;;;8.77;6.00;;;;;;;;;;5013746;28;20414;-77
2022/03/10 05:39:11;;;;;;;9.87;5.27;;;;;;;;;;5012406;28;20470;-77
2022/03/10 05:41:37;;;;;;;8.07;5.60;;;;;;;;;;5037678;23;20573;-76
2022/03/10 05:44:03;;;;;;;9.23;6.20;;;;;;;;;;5033936;28;20940;-77
2022/03/10 05:46:30;;;;;;;10.67;5.67;;;;;;;;;;5034289;28;20395;-76
2022/03/10 05:48:56;;;;;;;10.90;5.97;;;;;;;;;;5034430;28;20391;-77
2022/03/10 05:51:22;;;;;;;8.93;6.80;;;;;;;;;;5049660;28;20425;-77
2022/03/10 05:53:49;;;;;;;10.40;6.53;;;;;;;;;;5034148;28;20398;-78
2022/03/10 05:56:15;;;;;;;9.87;6.77;;;;;;;;;;5049485;28;20894;-77
2022/03/10 05:58:43;;;;;;;11.87;8.03;;;;;;;;;;5034094;28;20822;-78
2022/03/10 06:01:09;;;;;;;9.73;6.50;;;;;;;;;;5034189;28;20430;-76
2022/03/10 06:03:35;;;;;;;9.90;6.53;;;;;;;;;;5034269;28;20465;-76
2022/03/10 06:06:01;;;;;;;18.53;7.33;;;;;;;;;;5034139;28;20394;-77
2022/03/10 06:08:27;;;;;;;13.60;6.20;;;;;;;;;;5033870;28;20570;-76
2022/03/10 06:10:53;;;;;;;11.40;7.70;;;;;;;;;;5049120;28;20438;-76
2022/03/10 06:13:19;;;;;;;13.53;7.70;;;;;;;;;;5029364;28;20506;-77
2022/03/10 06:15:48;;;;;;;12.50;6.67;;;;;;;;;;5013086;28;20416;-77
2022/03/10 06:18:14;;;;;;;10.67;5.70;;;;;;;;;;5011193;28;20497;-78
2022/03/10 06:20:40;;;;;;;9.70;6.47;;;;;;;;;;5015026;28;20869;-78
2022/03/10 06:23:06;;;;;;;10.40;5.90;;;;;;;;;;5028908;28;20820;-78
2022/03/10 06:25:32;;;;;;;13.33;6.27;;;;;;;;;;5015496;28;20427;-78
2022/03/10 06:27:58;;;;;;;11.87;6.23;;;;;;;;;;5015624;28;20827;-77
2022/03/10 06:30:24;;;;;;;12.47;6.30;;;;;;;;;;5018180;28;20439;-77
2022/03/10 06:32:50;;;;;;;9.90;6.67;;;;;;;;;;5017458;28;20415;-78
2022/03/10 06:35:16;;;;;;;13.03;6.60;;;;;;;;;;5017593;28;20510;-77
2022/03/10 06:37:42;;;;;;;11.73;7.20;;;;;;;;;;5012500;28;20439;-77
2022/03/10 06:40:09;;;;;;;12.03;7.37;;;;;;;;;;5013830;28;20434;-77
2022/03/10 06:42:36;;;;;;;16.80;7.57;;;;;;;;;;5014381;28;20423;-77
2022/03/10 06:45:05;;;;;;;13.40;6.63;;;;;;;;;;5018162;28;20439;-77
2022/03/10 06:47:31;;;;;;;14.70;8.10;;;;;;;;;;5017873;28;20557;-77
2022/03/10 06:49:57;;;;;;;13.30;6.53;;;;;;;;;;5018100;28;20773;-78
2022/03/10 06:52:23;;;;;;;12.07;6.27;;;;;;;;;;5014888;28;20443;-77
2022/03/10 06:54:49;;;;;;;13.70;7.73;;;;;;;;;;5010768;28;20415;-78
2022/03/10 06:57:15;;;;;;;18.70;7.03;;;;;;;;;;5000880;28;20478;-77
2022/03/10 06:59:41;;;;;;;7.90;5.90;;;;;;;;;;5018170;28;20516;-77
2022/03/10 07:02:08;;;;;;;15.20;7.33;;;;;;;;;;5018502;28;20473;-77
2022/03/10 07:04:34;;;;;;;9.17;6.40;;;;;;;;;;5018946;28;20483;-77
2022/03/10 07:07:00;;;;;;;12.03;6.40;;;;;;;;;;5018862;28;20442;-77
2022/03/10 07:09:26;;;;;;;10.77;6.07;;;;;;;;;;5020088;28;20823;-77
2022/03/10 07:11:53;;;;;;;14.53;6.63;;;;;;;;;;5014264;28;20492;-77
2022/03/10 07:14:19;;;;;;;10.43;6.50;;;;;;;;;;5018252;28;20839;-76
2022/03/10 07:16:45;;;;;;;14.00;6.43;;;;;;;;;;5012942;28;20428;-77
2022/03/10 07:19:12;;;;;;;14.17;8.33;;;;;;;;;;4996445;28;20960;-77
2022/03/10 07:21:38;;;;;;;18.83;6.50;;;;;;;;;;5012992;28;20436;-77
2022/03/10 07:24:05;;;;;;;15.10;9.00;;;;;;;;;;5012425;28;20560;-76
2022/03/10 07:26:31;;;;;;;11.50;7.53;;;;;;;;;;5007680;28;20431;-77
2022/03/10 07:29:00;;;;;;;12.02;6.40;;;;;;;;;;5016515;28;20450;-77
2022/03/10 07:31:29;;;;;;;10.32;6.68;;;;;;;;;;5008359;28;20823;-79
2022/03/10 07:33:56;;;;;;;16.03;6.73;;;;;;;;;;5016391;28;20168;-77
2022/03/10 07:36:22;;;;;;;13.30;6.70;;;;;;;;;;5014778;28;20953;-78
2022/03/10 07:38:48;;;;;;;11.13;7.20;;;;;;;;;;5012630;28;20452;-77
2022/03/10 07:41:14;;;;;;;10.60;6.43;;;;;;;;;;5009429;28;20541;-78
2022/03/10 07:43:40;;;;;;;17.10;7.70;;;;;;;;;;5006652;28;20423;-77
2022/03/10 07:46:06;;;;;;;12.60;7.60;;;;;;;;;;5014281;28;20492;-77
2022/03/10 07:48:33;;;;;;;11.20;7.00;;;;;;;;;;5021779;28;20421;-77
2022/03/10 07:50:59;;;;;;;13.80;7.07;;;;;;;;;;5013948;28;20200;-77
2022/03/10 07:53:25;;;;;;;15.53;6.90;;;;;;;;;;5024881;28;20977;-77
2022/03/10 07:55:55;;;;;;;12.05;6.45;;;;;;;;;;5019064;28;20476;-78
2022/03/10 07:58:25;;;;;;;8.50;6.43;;;;;;;;;;5031448;28;20192;-77
2022/03/10 08:00:54;;;;;;;11.83;7.70;;;;;;;;;;5016747;28;20437;-77
2022/03/10 08:03:21;;;;;;;13.80;7.50;;;;;;;;;;5026524;28;20415;-77
2022/03/10 08:05:48;;;;;;;15.60;7.15;;;;;;;;;;5010228;28;20438;-77
2022/03/10 08:08:14;;;;;;;10.80;6.90;;;;;;;;;;5003618;28;20721;-77
2022/03/10 08:10:40;;;;;;;11.27;7.27;;;;;;;;;;5018285;28;20467;-77
2022/03/10 08:13:06;;;;;;;11.20;6.47;;;;;;;;;;5029801;28;20427;-77
2022/03/10 08:15:32;;;;;;;13.50;7.20;;;;;;;;;;5011004;28;20425;-77
2022/03/10 08:17:59;;;;;;;15.43;8.10;;;;;;;;;;5015309;28;20458;-77
2022/03/10 08:20:25;;;;;;;17.13;10.30;;;;;;;;;;5009505;28;20490;-78
2022/03/10 08:22:52;;;;;;;7.70;6.07;;;;;;;;;;5017609;28;20771;-77
2022/03/10 08:25:19;;;;;;;14.63;6.90;;;;;;;;;;5009079;28;20434;-77
2022/03/10 08:27:47;;;;;;;9.27;5.47;;;;;;;;;;5015542;28;20419;-78
2022/03/10 08:30:14;;;;;;;10.50;5.90;;;;;;;;;;5014162;28;20523;-77
2022/03/10 08:32:43;;;;;;;9.07;5.57;;;;;;;;;;5014452;28;20505;-78
2022/03/10 08:35:09;;;;;;;9.70;6.40;;;;;;;;;;5021903;28;20946;-78
2022/03/10 08:37:35;;;;;;;10.07;6.33;;;;;;;;;;5016246;28;20479;-78
2022/03/10 08:40:01;;;;;;;12.73;8.00;;;;;;;;;;5014537;28;20451;-77
2022/03/10 08:42:27;;;;;;;14.77;5.30;;;;;;;;;;5011338;28;20462;-78
2022/03/10 08:44:53;;;;;;;9.93;7.00;;;;;;;;;;5009681;28;20411;-77
2022/03/10 08:47:19;;;;;;;10.17;6.27;;;;;;;;;;5010121;28;20412;-78
2022/03/10 08:49:45;;;;;;;10.43;6.63;;;;;;;;;;5033926;28;20520;-78
2022/03/10 08:52:12;;;;;;;10.03;6.23;;;;;;;;;;5025883;28;20958;-77
2022/03/10 08:54:39;;;;;;;12.20;5.97;;;;;;;;;;5029355;28;20494;-77
2022/03/10 08:57:05;;;;;;;9.73;6.27;;;;;;;;;;5013581;28;20435;-77
2022/03/10 08:59:31;;;;;;;13.40;7.00;;;;;;;;;;5009226;28;20455;-77
2022/03/10 09:01:57;;;;;;;10.13;5.80;;;;;;;;;;5014582;28;20446;-77
2022/03/10 09:04:23;;;;;;;8.87;5.30;;;;;;;;;;5016159;28;20423;-77
2022/03/10 09:06:49;;;;;;;9.27;6.27;;;;;;;;;;5016106;28;20462;-77
2022/03/10 09:09:16;;;;;;;7.20;5.80;;;;;;;;;;5012664;28;20439;-77
2022/03/10 09:11:42;;;;;;;13.33;6.40;;;;;;;;;;5028524;28;20450;-77
2022/03/10 09:14:08;;;;;;;9.27;6.30;;;;;;;;;;5014888;28;20442;-77
2022/03/10 09:16:34;;;;;;;12.53;7.00;;;;;;;;;;5011194;28;20958;-78
2022/03/10 09:19:01;;;;;;;9.53;6.10;;;;;;;;;;5016265;28;20954;-77
2022/03/10 09:21:28;;;;;;;8.50;5.90;;;;;;;;;;5011308;28;20812;-77
2022/03/10 09:23:54;;;;;;;12.93;6.80;;;;;;;;;;5015191;28;20423;-78
2022/03/10 09:26:20;;;;;;;9.00;5.90;;;;;;;;;;5008437;28;20835;-77
2022/03/10 09:28:46;;;;;;;14.10;5.43;;;;;;;;;;5014483;28;20495;-77
2022/03/10 09:31:12;;;;;;;8.00;6.23;;;;;;;;;;5011287;28;20520;-77
2022/03/10 09:33:42;;;;;;;8.93;5.50;;;;;;;;;;5025192;28;20775;-77
2022/03/10 09:36:09;;;;;;;9.80;6.07;;;;;;;;;;5023716;28;20437;-77
2022/03/10 09:38:35;;;;;;;8.87;5.67;;;;;;;;;;5031105;28;20494;-77
2022/03/10 09:41:01;;;;;;;8.17;5.07;;;;;;;;;;5029332;28;20474;-77
2022/03/10 09:43:29;;;;;;;7.40;5.80;;;;;;;;;;5029774;28;20424;-78
2022/03/10 09:45:55;;;;;;;9.73;6.50;;;;;;;;;;5011743;28;20423;-76
2022/03/10 09:48:21;;;;;;;8.17;5.23;;;;;;;;;;5010983;28;20426;-77
2022/03/10 09:50:48;;;;;;;10.13;6.83;;;;;;;;;;5025071;28;20472;-78
2022/03/10 09:53:15;;;;;;;8.13;5.90;;;;;;;;;;5010302;28;20419;-77
2022/03/10 09:55:41;;;;;;;11.60;6.10;;;;;;;;;;5007841;28;20467;-77
2022/03/10 09:58:08;;;;;;;10.23;6.70;;;;;;;;;;5004489;28;20471;-77
2022/03/10 10:00:34;;;;;;;10.50;5.50;;;;;;;;;;5007149;28;20455;-77
2022/03/10 10:03:00;;;;;;;10.13;6.27;;;;;;;;;;5010662;28;20426;-77
2022/03/10 10:05:30;;;;;;;9.03;5.70;;;;;;;;;;5010020;28;20415;-77
2022/03/10 10:08:10;;;;;;;11.23;6.70;;;;;;;;;;5003045;28;20420;-77
2022/03/10 10:10:42;;;;;;;8.40;5.93;;;;;;;;;;5004634;28;20518;-76
2022/03/10 10:13:08;;;;;;;9.77;6.57;;;;;;;;;;5012761;28;20458;-77
2022/03/10 10:15:38;;;;;;;8.70;6.03;;;;;;;;;;5023895;28;20423;-78
2022/03/10 10:18:05;;;;;;;7.57;6.30;;;;;;;;;;5026443;28;21015;-78
2022/03/10 10:20:48;;;;;;;9.70;5.27;;;;;;;;;;5006815;28;20447;-77
2022/03/10 10:23:15;;;;;;;8.40;5.90;;;;;;;;;;5008405;28;20407;-77
2022/03/10 10:25:51;;;;;;;7.90;6.00;;;;;;;;;;5009802;28;20463;-78
2022/03/10 10:28:27;;;;;;;6.67;4.63;;;;;;;;;;5007754;28;20442;-78
2022/03/10 10:31:01;;;;;;;6.97;5.10;;;;;;;;;;5011990;28;20442;-77
2022/03/10 10:33:28;;;;;;;8.97;5.50;;;;;;;;;;5008812;28;20419;-77
2022/03/10 10:36:14;;;;;;;8.47;4.50;;;;;;;;;;5012727;28;20427;-77
2022/03/10 10:38:41;;;;;;;7.73;4.83;;;;;;;;;;5009735;28;20459;-78
2022/03/10 10:41:17;;;;;;;6.70;4.60;;;;;;;;;;5013466;28;20454;-77
2022/03/10 10:43:46;;;;;;;8.73;5.20;;;;;;;;;;5011457;28;20486;-77
2022/03/10 10:46:23;;;;;;;6.07;4.73;;;;;;;;;;5017948;28;20482;-77
2022/03/10 10:48:49;;;;;;;8.47;4.70;;;;;;;;;;5009648;28;20513;-79
2022/03/10 10:51:15;;;;;;;6.77;5.77;;;;;;;;;;5011920;28;20443;-77
2022/03/10 10:53:41;;;;;;;7.57;5.37;;;;;;;;;;5006726;28;20421;-77
2022/03/10 10:56:07;;;;;;;11.70;5.30;;;;;;;;;;5010710;28;20445;-77
2022/03/10 10:58:33;;;;;;;8.93;5.37;;;;;;;;;;5005218;28;21014;-77
2022/03/10 11:00:59;;;;;;;8.00;4.40;;;;;;;;;;5005119;28;20451;-78
2022/03/10 11:03:32;;;;;;;7.10;4.97;;;;;;;;;;5012089;28;20442;-78
2022/03/10 11:05:58;;;;;;;9.00;4.72;;;;;;;;;;5013230;28;20922;-77
2022/03/10 11:08:30;;;;;;;6.77;5.43;;;;;;;;;;5015715;28;20180;-77
2022/03/10 11:10:56;;;;;;;8.90;5.50;;;;;;;;;;5027944;28;20443;-77
2022/03/10 11:13:23;;;;;;;8.53;5.53;;;;;;;;;;5015086;28;20426;-77
2022/03/10 11:15:50;;;;;;;9.20;7.03;;;;;;;;;;5012891;28;20403;-77
2022/03/10 11:18:16;;;;;;;7.20;4.70;;;;;;;;;;5010567;28;20501;-78
2022/03/10 11:20:44;;;;;;;10.63;6.47;;;;;;;;;;5012806;28;20518;-77
2022/03/10 11:23:26;;;;;;;12.53;5.77;;;;;;;;;;5017419;28;20415;-76
2022/03/10 11:25:56;;;;;;;7.37;5.17;;;;;;;;;;5023992;28;20404;-77
2022/03/10 11:28:30;;;;;;;7.40;5.57;;;;;;;;;;5015457;28;20430;-77
2022/03/10 11:30:58;;;;;;;7.80;4.83;;;;;;;;;;5018920;28;20483;-77
2022/03/10 11:33:31;;;;;;;6.80;4.63;;;;;;;;;;5022908;28;20422;-77
2022/03/10 11:35:58;;;;;;;5.80;4.03;;;;;;;;;;5020273;28;20494;-77
2022/03/10 11:38:32;;;;;;;6.37;4.07;;;;;;;;;;5020520;28;20486;-78
2022/03/10 11:41:00;;;;;;;6.33;4.83;;;;;;;;;;5011411;28;20458;-79
2022/03/10 11:43:26;;;;;;;9.60;4.90;;;;;;;;;;5013327;28;20892;-77
2022/03/10 11:45:52;;;;;;;7.00;4.20;;;;;;;;;;5020227;28;20900;-77
2022/03/10 11:48:25;;;;;;;7.53;4.50;;;;;;;;;;5022299;28;20469;-77
2022/03/10 11:50:51;;;;;;;8.20;5.80;;;;;;;;;;5025068;28;20501;-77
2022/03/10 11:53:18;;;;;;;8.90;4.77;;;;;;;;;;5009241;28;20431;-77
2022/03/10 11:55:45;;;;;;;8.10;4.40;;;;;;;;;;5006559;28;20489;-77
2022/03/10 11:58:13;;;;;;;6.97;4.97;;;;;;;;;;5017501;28;20470;-77
2022/03/10 12:00:49;;;;;;;8.83;5.67;;;;;;;;;;5031356;28;20455;-77
2022/03/10 12:03:24;;;;;;;9.27;5.40;;;;;;;;;;5014516;28;20923;-80
2022/03/10 12:05:58;;;;;;;6.70;4.60;;;;;;;;;;5036883;28;20411;-79
2022/03/10 12:08:25;;;;;;;9.77;5.47;;;;;;;;;;5018220;28;20458;-79
2022/03/10 12:10:51;;;;;;;8.37;4.60;;;;;;;;;;5015847;28;20494;-78
2022/03/10 12:13:26;;;;;;;6.20;4.17;;;;;;;;;;5009992;28;20420;-78
2022/03/10 12:15:52;;;;;;;5.57;4.73;;;;;;;;;;5022807;28;20518;-78
2022/03/10 12:18:21;;;;;;;5.97;4.60;;;;;;;;;;5009351;28;20486;-77
2022/03/10 12:20:49;;;;;;;6.60;4.10;;;;;;;;;;5006818;28;20527;-77
2022/03/10 12:23:16;;;;;;;5.97;4.07;;;;;;;;;;5009631;28;20434;-78
2022/03/10 12:25:55;;;;;;;7.00;4.00;;;;;;;;;;5012044;28;20416;-78
2022/03/10 12:28:34;;;;;;;6.43;4.03;;;;;;;;;;5017926;28;20415;-79
2022/03/10 12:31:01;;;;;;;6.83;4.13;;;;;;;;;;5011413;28;20450;-76
2022/03/10 12:33:28;;;;;;;7.07;3.90;;;;;;;;;;5013398;28;20428;-77
2022/03/10 12:35:58;;;;;;;5.23;4.13;;;;;;;;;;5007669;28;20493;-77
2022/03/10 12:38:44;;;;;;;6.40;4.10;;;;;;;;;;5014889;28;20532;-79
2022/03/10 12:41:11;;;;;;;5.37;3.43;;;;;;;;;;5006581;28;20459;-77
2022/03/10 12:43:37;;;;;;;6.30;4.13;;;;;;;;;;5009855;28;20416;-77
2022/03/10 12:46:04;;;;;;;5.27;4.03;;;;;;;;;;5011746;28;20468;-77
2022/03/10 12:48:52;;;;;;;7.10;4.43;;;;;;;;;;5014465;28;20408;-77
2022/03/10 12:51:25;;;;;;;8.93;5.23;;;;;;;;;;5013862;28;20466;-78
2022/03/10 12:53:52;;;;;;;8.90;4.83;;;;;;;;;;5029690;28;20435;-77
2022/03/10 12:56:19;;;;;;;10.73;4.70;;;;;;;;;;5013028;28;20423;-77
2022/03/10 12:58:46;;;;;;;8.13;5.07;;;;;;;;;;5012576;28;20478;-78
2022/03/10 13:01:13;;;;;;;7.60;4.83;;;;;;;;;;5010495;28;20798;-76
2022/03/10 13:03:48;;;;;;;8.37;4.03;;;;;;;;;;5012112;28;20940;-76
2022/03/10 13:06:15;;;;;;;6.13;4.03;;;;;;;;;;5008455;28;20899;-76
2022/03/10 13:08:43;;;;;;;5.73;4.33;;;;;;;;;;5007992;28;20459;-77
2022/03/10 13:11:09;;;;;;;6.00;4.00;;;;;;;;;;5009188;28;20444;-76
2022/03/10 13:13:36;;;;;;;5.93;4.40;;;;;;;;;;5005888;28;20428;-76
2022/03/10 13:16:03;;;;;;;6.90;4.33;;;;;;;;;;5008747;28;20437;-76
2022/03/10 13:18:38;;;;;;;9.83;5.50;;;;;;;;;;5012489;28;20609;-75
2022/03/10 13:21:06;;;;;;;7.17;5.50;;;;;;;;;;5004906;28;20443;-76
2022/03/10 13:23:32;;;;;;;6.30;4.50;;;;;;;;;;5007127;28;20424;-77
2022/03/10 13:25:58;;;;;;;5.30;3.87;;;;;;;;;;5010650;28;20427;-76
2022/03/10 13:28:25;;;;;;;6.53;4.63;;;;;;;;;;4999894;28;20424;-76
2022/03/10 13:30:51;;;;;;;7.93;4.67;;;;;;;;;;5020749;28;20439;-76
2022/03/10 13:33:18;;;;;;;5.90;4.40;;;;;;;;;;5006593;28;20432;-79
2022/03/10 13:35:50;;;;;;;7.63;5.23;;;;;;;;;;5016318;28;20423;-77
2022/03/10 13:38:18;;;;;;;6.30;4.40;;;;;;;;;;5028496;28;20478;-78
2022/03/10 13:40:44;;;;;;;7.10;4.67;;;;;;;;;;5018659;28;20998;-77
2022/03/10 13:43:20;;;;;;;8.50;4.90;;;;;;;;;;5006734;28;20475;-78
2022/03/10 13:45:46;;;;;;;6.80;4.90;;;;;;;;;;5020086;28;20420;-77
2022/03/10 13:48:19;;;;;;;7.43;5.90;;;;;;;;;;5008771;28;20466;-78
2022/03/10 13:50:46;;;;;;;8.13;5.63;;;;;;;;;;5002701;28;20451;-78
2022/03/10 13:53:12;;;;;;;7.00;5.10;;;;;;;;;;5004512;28;20489;-77
2022/03/10 13:55:38;;;;;;;6.77;5.03;;;;;;;;;;5010118;28;20415;-78
2022/03/10 13:58:05;;;;;;;5.83;4.53;;;;;;;;;;5017990;28;20994;-77
2022/03/10 14:00:33;;;;;;;12.33;5.80;;;;;;;;;;5024393;28;20971;-76
2022/03/10 14:03:13;;;;;;;11.00;6.00;;;;;;;;;;5013161;28;20465;-77
2022/03/10 14:05:59;;;;;;;8.03;5.67;;;;;;;;;;5008710;28;21046;-76
2022/03/10 14:08:26;;;;;;;10.30;6.00;;;;;;;;;;4993622;28;20424;-77
2022/03/10 14:10:58;;;;;;;12.50;9.17;;;;;;;;;;5001315;28;20528;-77
2022/03/10 14:13:25;;;;;;;8.83;5.93;;;;;;;;;;5005599;28;20921;-76
2022/03/10 14:15:56;;;;;;;8.37;5.80;;;;;;;;;;5009268;28;20420;-76
2022/03/10 14:18:24;;;;;;;8.70;5.70;;;;;;;;;;5004105;28;20452;-77
2022/03/10 14:20:51;;;;;;;8.97;6.23;;;;;;;;;;5004125;28;20495;-77
2022/03/10 14:23:20;;;;;;;9.93;6.07;;;;;;;;;;5009952;28;21143;-76
2022/03/10 14:25:48;;;;;;;9.27;6.10;;;;;;;;;;5007483;28;20418;-76
2022/03/10 14:28:15;;;;;;;10.77;6.60;;;;;;;;;;5005589;28;20509;-77
2022/03/10 14:30:48;;;;;;;7.63;5.50;;;;;;;;;;5004517;28;20924;-77
2022/03/10 14:33:14;;;;;;;9.20;5.72;;;;;;;;;;5008323;28;20495;-76
2022/03/10 14:35:41;;;;;;;8.10;4.67;;;;;;;;;;5010908;28;20209;-77
2022/03/10 14:38:07;;;;;;;7.30;4.90;;;;;;;;;;5026853;28;20419;-76
2022/03/10 14:40:35;;;;;;;8.60;5.53;;;;;;;;;;5008876;28;20451;-77
2022/03/10 14:43:01;;;;;;;8.43;4.60;;;;;;;;;;5008581;28;20779;-77
2022/03/10 14:45:28;;;;;;;8.17;5.20;;;;;;;;;;5021905;28;20247;-78